Time;durP1;ratioP1;P1;durP2;ratioP2;P2;SDS_P1;SDS_P2;PMS_P1;PMS_P2;Temp;Humidity;BMP_temperature;BMP_pressure;BME280_temperature;BME280_humidity;BME280_pressure;Samples;Min_cycle;Max_cycle;Signal;HPM_P1;HPM_P2
2022/02/21 00:00:52;;;;;;;93.57;57.97;;;153.80;2252.80;;;;;;5067941;28;20430;-72
2022/02/21 00:03:20;;;;;;;77.60;50.47;;;153.80;2252.80;;;;;;5050617;28;20043;-71
2022/02/21 00:05:46;;;;;;;72.03;47.92;;;153.70;2252.80;;;;;;5072302;28;20036;-72
2022/02/21 00:08:12;;;;;;;73.97;49.75;;;153.60;2252.80;;;;;;5060162;28;20028;-71
2022/02/21 00:10:38;;;;;;;79.55;51.58;;;153.60;2252.80;;;;;;5069729;28;20069;-71
2022/02/21 00:13:04;;;;;;;104.22;61.22;;;153.70;2252.80;;;;;;5062766;28;20033;-71
2022/02/21 00:15:30;;;;;;;88.53;54.17;;;153.70;2252.80;;;;;;5065344;28;20028;-72
2022/02/21 00:17:58;;;;;;;113.05;66.28;;;153.70;2252.80;;;;;;5061571;28;20025;-71
2022/02/21 00:20:25;;;;;;;97.63;57.40;;;153.70;2252.80;;;;;;5067953;28;20032;-72
2022/02/21 00:22:51;;;;;;;81.72;54.00;;;153.70;2252.80;;;;;;5060935;28;20970;-71
2022/02/21 00:25:17;;;;;;;119.00;68.38;;;153.70;2252.80;;;;;;5064831;28;20507;-71
2022/02/21 00:27:43;;;;;;;100.13;59.47;;;153.70;2252.80;;;;;;5053658;28;20029;-72
2022/02/21 00:30:09;;;;;;;112.38;62.17;;;153.70;2252.80;;;;;;5067007;28;20035;-71
2022/02/21 00:32:35;;;;;;;115.45;63.65;;;153.70;2252.80;;;;;;5062330;28;20086;-72
2022/02/21 00:35:02;;;;;;;113.18;63.15;;;153.70;2252.80;;;;;;5066049;28;20059;-71
2022/02/21 00:37:29;;;;;;;109.45;63.42;;;153.60;2252.80;;;;;;5056483;28;20047;-71
2022/02/21 00:39:55;;;;;;;126.55;73.15;;;153.60;2252.80;;;;;;5063513;28;20028;-71
2022/02/21 00:42:24;;;;;;;126.03;71.43;;;128.90;2252.80;;;;;;5081595;28;20037;-71
2022/02/21 00:44:55;;;;;;;115.00;70.05;;;128.90;2252.80;;;;;;5062107;28;20052;-71
2022/02/21 00:47:25;;;;;;;105.65;66.00;;;128.80;2252.80;;;;;;5067651;28;20028;-72
2022/02/21 00:49:54;;;;;;;99.47;61.80;;;128.80;2252.80;;;;;;5068651;28;20035;-71
2022/02/21 00:52:21;;;;;;;104.53;55.45;;;128.80;2252.80;;;;;;5060085;28;20075;-72
2022/02/21 00:54:47;;;;;;;105.90;62.90;;;128.80;2252.80;;;;;;5071054;28;20104;-71
2022/02/21 00:57:13;;;;;;;97.65;61.42;;;128.70;2252.80;;;;;;5064572;28;20394;-71
2022/02/21 00:59:39;;;;;;;101.22;62.63;;;128.70;2252.80;;;;;;5058533;28;20512;-71
2022/02/21 01:02:05;;;;;;;104.10;61.53;;;128.60;2252.80;;;;;;5053223;28;20117;-71
2022/02/21 01:04:31;;;;;;;101.47;60.72;;;128.60;2252.80;;;;;;5061306;28;20101;-71
2022/02/21 01:06:57;;;;;;;91.57;58.53;;;128.50;2252.80;;;;;;5056287;28;20100;-72
2022/02/21 01:09:23;;;;;;;103.38;62.20;;;128.50;2252.80;;;;;;5065919;28;20044;-72
2022/02/21 01:11:49;;;;;;;102.25;61.08;;;128.50;2252.80;;;;;;5071029;28;20097;-72
2022/02/21 01:14:15;;;;;;;93.00;56.53;;;128.40;2252.80;;;;;;5071070;28;20104;-72
2022/02/21 01:16:40;;;;;;;86.60;52.50;;;128.40;2252.80;;;;;;5071472;28;20021;-72
2022/02/21 01:19:06;;;;;;;84.95;50.75;;;128.40;2252.80;;;;;;5058781;28;20047;-72
2022/02/21 01:21:32;;;;;;;90.05;53.67;;;128.30;2252.80;;;;;;5063267;28;20484;-72
2022/02/21 01:23:59;;;;;;;96.03;56.55;;;128.30;2252.80;;;;;;5062164;28;20056;-72
2022/02/21 01:26:25;;;;;;;92.15;55.75;;;128.40;2252.80;;;;;;5069373;28;20498;-71
2022/02/21 01:28:51;;;;;;;94.70;53.70;;;128.50;2252.80;;;;;;5064078;28;20031;-72
2022/02/21 01:31:17;;;;;;;90.93;56.03;;;128.30;2252.80;;;;;;5064066;28;20059;-71
2022/02/21 01:33:43;;;;;;;97.95;62.28;;;128.30;2252.80;;;;;;5069358;28;20024;-71
2022/02/21 01:36:09;;;;;;;98.65;60.90;;;128.30;2252.80;;;;;;5062231;28;20502;-71
2022/02/21 01:38:35;;;;;;;97.10;59.80;;;128.20;2252.80;;;;;;5055272;28;20029;-71
2022/02/21 01:41:00;;;;;;;98.07;62.28;;;128.20;2252.80;;;;;;5071014;28;20021;-71
2022/02/21 01:43:26;;;;;;;100.85;62.05;;;128.20;2252.80;;;;;;5072997;28;20422;-71
2022/02/21 01:45:52;;;;;;;100.03;59.78;;;128.20;2252.80;;;;;;5060489;28;20063;-71
2022/02/21 01:48:18;;;;;;;105.80;66.05;;;128.10;2252.80;;;;;;5065438;28;20060;-71
2022/02/21 01:50:44;;;;;;;109.20;67.07;;;128.00;2252.80;;;;;;5067224;28;20032;-71
2022/02/21 01:53:10;;;;;;;104.07;63.20;;;128.00;2252.80;;;;;;5062255;28;20435;-71
2022/02/21 01:55:37;;;;;;;111.15;70.05;;;128.00;2252.80;;;;;;5066039;28;20053;-71
2022/02/21 01:58:05;;;;;;;105.43;64.35;;;103.30;2227.20;;;;;;5066300;28;20020;-71
2022/02/21 02:00:31;;;;;;;111.78;66.93;;;103.30;2227.20;;;;;;5076977;28;20025;-70
2022/02/21 02:02:57;;;;;;;112.18;68.30;;;103.20;2227.20;;;;;;5061571;28;20090;-71
2022/02/21 02:05:25;;;;;;;112.65;67.53;;;103.20;2227.20;;;;;;5073233;28;20141;-71
2022/02/21 02:07:52;;;;;;;112.00;66.80;;;103.10;2227.20;;;;;;5060300;28;20032;-71
2022/02/21 02:10:18;;;;;;;108.50;68.40;;;103.20;2227.20;;;;;;5074526;28;20036;-71
2022/02/21 02:12:44;;;;;;;109.82;64.03;;;103.10;2227.20;;;;;;5073111;28;20475;-71
2022/02/21 02:15:12;;;;;;;103.38;62.53;;;103.10;2227.20;;;;;;5066669;28;20032;-71
2022/02/21 02:17:38;;;;;;;108.82;63.70;;;103.10;2227.20;;;;;;5065365;28;20475;-71
2022/02/21 02:20:04;;;;;;;109.88;64.63;;;103.10;2227.20;;;;;;5070300;28;20060;-72
2022/02/21 02:22:30;;;;;;;108.38;63.10;;;103.00;2227.20;;;;;;5054115;28;20028;-71
2022/02/21 02:24:56;;;;;;;108.80;64.80;;;103.10;2227.20;;;;;;5053878;28;20417;-71
2022/02/21 02:27:22;;;;;;;107.47;64.85;;;103.10;2227.20;;;;;;5054091;28;20436;-71
2022/02/21 02:29:51;;;;;;;108.85;59.17;;;103.10;2227.20;;;;;;5069099;28;20031;-71
2022/02/21 02:32:17;;;;;;;107.68;61.85;;;103.20;2227.20;;;;;;5065311;28;20357;-70
2022/02/21 02:34:45;;;;;;;97.95;58.08;;;103.20;1843.20;;;;;;5068007;28;20593;-71
2022/02/21 02:37:12;;;;;;;101.88;61.13;;;103.30;2227.20;;;;;;5063616;28;20455;-71
2022/02/21 02:39:38;;;;;;;93.30;55.95;;;103.30;1843.20;;;;;;5059794;28;20024;-71
2022/02/21 02:42:04;;;;;;;99.78;57.10;;;103.30;2227.20;;;;;;5069504;28;20032;-71
2022/02/21 02:44:30;;;;;;;101.13;55.13;;;128.00;2252.80;;;;;;5065262;28;20017;-71
2022/02/21 02:46:56;;;;;;;95.03;56.10;;;128.00;2252.80;;;;;;5071752;28;20111;-70
2022/02/21 02:49:22;;;;;;;91.93;52.78;;;128.00;2252.80;;;;;;5068288;28;20117;-72
2022/02/21 02:51:48;;;;;;;86.65;51.85;;;128.10;2252.80;;;;;;5053109;28;20041;-71
2022/02/21 02:54:13;;;;;;;84.53;49.92;;;128.10;2252.80;;;;;;5062710;28;20037;-71
2022/02/21 02:56:40;;;;;;;80.13;50.15;;;128.20;2252.80;;;;;;5064863;28;20051;-71
2022/02/21 02:59:07;;;;;;;74.00;48.03;;;128.20;2252.80;;;;;;5073093;28;20025;-71
2022/02/21 03:01:33;;;;;;;85.70;48.67;;;128.20;2252.80;;;;;;5059374;28;20029;-72
2022/02/21 03:03:58;;;;;;;85.45;48.17;;;128.30;2252.80;;;;;;5072804;28;20070;-72
2022/02/21 03:06:24;;;;;;;80.97;48.67;;;128.30;2252.80;;;;;;5064375;28;20037;-71
2022/02/21 03:08:50;;;;;;;76.25;44.15;;;128.40;2252.80;;;;;;5059650;28;20024;-72
2022/02/21 03:11:17;;;;;;;79.00;49.15;;;128.40;2252.80;;;;;;5060490;28;20020;-71
2022/02/21 03:13:42;;;;;;;69.82;45.28;;;128.40;2252.80;;;;;;5072618;28;20056;-72
2022/02/21 03:16:08;;;;;;;65.13;43.72;;;128.50;2252.80;;;;;;5065753;28;20052;-72
2022/02/21 03:18:34;;;;;;;63.85;41.53;;;128.40;2252.80;;;;;;5071180;28;20112;-72
2022/02/21 03:21:00;;;;;;;66.13;42.63;;;128.40;2252.80;;;;;;5066015;28;20021;-71
2022/02/21 03:23:26;;;;;;;66.47;41.17;;;128.50;2252.80;;;;;;5059365;28;20024;-72
2022/02/21 03:25:52;;;;;;;71.22;43.42;;;128.40;2252.80;;;;;;5065010;28;20032;-71
2022/02/21 03:28:19;;;;;;;65.72;43.00;;;128.50;2252.80;;;;;;5065340;28;20044;-71
2022/02/21 03:30:46;;;;;;;69.50;43.75;;;128.50;2252.80;;;;;;5060316;28;20023;-71
2022/02/21 03:33:13;;;;;;;72.60;44.75;;;128.50;2252.80;;;;;;5066141;28;20063;-72
2022/02/21 03:35:39;;;;;;;73.05;42.92;;;128.40;2252.80;;;;;;5052188;28;20048;-72
2022/02/21 03:38:05;;;;;;;67.00;41.63;;;128.40;2252.80;;;;;;5086532;28;20396;-71
2022/02/21 03:40:31;;;;;;;66.68;39.40;;;128.40;2252.80;;;;;;5067333;28;20032;-72
2022/02/21 03:42:57;;;;;;;65.45;41.58;;;128.40;2252.80;;;;;;5059007;28;20021;-71
2022/02/21 03:45:23;;;;;;;67.93;43.08;;;128.40;2252.80;;;;;;5052186;28;20017;-72
2022/02/21 03:47:53;;;;;;;68.20;42.60;;;128.30;2252.80;;;;;;5074611;28;20031;-71
2022/02/21 03:50:19;;;;;;;69.38;43.22;;;128.30;2252.80;;;;;;5069254;28;20085;-71
2022/02/21 03:52:45;;;;;;;72.18;45.13;;;128.30;2252.80;;;;;;5065143;28;20037;-71
2022/02/21 03:55:12;;;;;;;65.72;43.75;;;128.30;2252.80;;;;;;5063588;28;20042;-71
2022/02/21 03:57:38;;;;;;;67.10;43.75;;;128.20;2252.80;;;;;;5070635;28;20371;-71
2022/02/21 04:00:06;;;;;;;73.22;44.15;;;128.20;2252.80;;;;;;5065273;28;20489;-72
2022/02/21 04:02:32;;;;;;;69.40;41.97;;;128.20;2252.80;;;;;;5061860;28;20021;-71
2022/02/21 04:05:01;;;;;;;69.15;42.63;;;128.20;2252.80;;;;;;5061198;28;20101;-71
2022/02/21 04:07:27;;;;;;;67.53;41.50;;;128.20;2252.80;;;;;;5062367;28;20029;-72
2022/02/21 04:09:53;;;;;;;63.40;41.72;;;128.20;1868.80;;;;;;5054301;28;20023;-71
2022/02/21 04:12:19;;;;;;;63.60;41.55;;;128.20;2252.80;;;;;;5057979;28;20032;-72
2022/02/21 04:14:45;;;;;;;59.22;38.13;;;128.20;2252.80;;;;;;5063392;28;20037;-72
2022/02/21 04:17:11;;;;;;;67.50;40.03;;;128.20;1920.00;;;;;;5062994;28;20039;-71
2022/02/21 04:19:36;;;;;;;65.65;39.15;;;128.30;1920.00;;;;;;5059995;28;20093;-72
2022/02/21 04:22:02;;;;;;;56.28;38.10;;;128.30;1894.40;;;;;;5070927;28;20024;-72
2022/02/21 04:24:28;;;;;;;58.78;37.22;;;128.30;1868.80;;;;;;5051847;28;20492;-72
2022/02/21 04:26:54;;;;;;;73.97;42.60;;;128.30;2252.80;;;;;;5063884;28;20085;-72
2022/02/21 04:29:20;;;;;;;64.43;38.30;;;128.30;2252.80;;;;;;5068969;28;20036;-72
2022/02/21 04:31:46;;;;;;;61.70;38.63;;;128.30;2252.80;;;;;;5064436;28;20491;-72
2022/02/21 04:34:11;;;;;;;64.50;40.92;;;128.20;2252.80;;;;;;5062623;28;20021;-71
2022/02/21 04:36:38;;;;;;;59.40;38.22;;;128.20;2252.80;;;;;;5077738;28;20033;-72
2022/02/21 04:39:04;;;;;;;55.35;37.83;;;128.20;2252.80;;;;;;5070039;28;20502;-71
2022/02/21 04:41:30;;;;;;;58.10;38.95;;;128.20;2252.80;;;;;;5052022;28;20392;-71
2022/02/21 04:43:56;;;;;;;66.75;39.17;;;128.20;2252.80;;;;;;5068768;28;20031;-71
2022/02/21 04:46:22;;;;;;;57.75;39.53;;;128.20;2252.80;;;;;;5064161;28;20021;-71
2022/02/21 04:48:48;;;;;;;66.18;43.30;;;128.20;2252.80;;;;;;5056850;28;20035;-71
2022/02/21 04:51:14;;;;;;;60.50;39.03;;;128.10;2252.80;;;;;;5063807;28;20103;-71
2022/02/21 04:53:40;;;;;;;63.25;39.67;;;128.10;2252.80;;;;;;5063502;28;20071;-71
2022/02/21 04:56:06;;;;;;;65.97;43.70;;;128.10;2252.80;;;;;;5051272;28;20025;-72
2022/02/21 04:58:31;;;;;;;64.30;39.88;;;128.00;2252.80;;;;;;5054351;28;20052;-72
2022/02/21 05:00:57;;;;;;;61.35;40.88;;;128.10;2252.80;;;;;;5071176;28;20029;-72
2022/02/21 05:03:23;;;;;;;70.22;38.95;;;128.10;2252.80;;;;;;5067551;28;20016;-72
2022/02/21 05:05:49;;;;;;;61.58;40.70;;;128.10;2252.80;;;;;;5057662;28;20032;-72
2022/02/21 05:08:15;;;;;;;66.65;42.72;;;128.00;2252.80;;;;;;5059418;28;20484;-72
2022/02/21 05:10:41;;;;;;;68.93;47.33;;;128.00;2252.80;;;;;;5069357;28;20372;-72
2022/02/21 05:13:06;;;;;;;71.85;46.92;;;103.30;2227.20;;;;;;5067795;28;20036;-72
2022/02/21 05:15:32;;;;;;;71.20;46.20;;;103.30;2227.20;;;;;;5074110;28;20029;-72
2022/02/21 05:17:58;;;;;;;62.00;43.95;;;103.20;2227.20;;;;;;5066224;28;20021;-72
2022/02/21 05:20:24;;;;;;;69.95;45.15;;;103.20;2227.20;;;;;;5067736;28;20468;-72
2022/02/21 05:22:50;;;;;;;67.63;44.40;;;103.10;2227.20;;;;;;5073911;28;20127;-72
2022/02/21 05:25:15;;;;;;;68.95;45.80;;;103.10;2227.20;;;;;;5055076;28;20028;-71
2022/02/21 05:27:42;;;;;;;75.13;45.20;;;103.10;2227.20;;;;;;5077568;28;20467;-72
2022/02/21 05:30:09;;;;;;;66.35;43.95;;;103.00;2227.20;;;;;;5069504;28;20032;-72
2022/02/21 05:32:35;;;;;;;70.55;45.40;;;103.00;2227.20;;;;;;5070803;28;20028;-72
2022/02/21 05:35:01;;;;;;;71.00;44.53;;;103.00;2227.20;;;;;;5066405;28;20915;-71
2022/02/21 05:37:27;;;;;;;71.80;45.53;;;103.00;2227.20;;;;;;5059682;28;20037;-72
2022/02/21 05:39:53;;;;;;;71.85;46.72;;;102.90;2227.20;;;;;;5069931;28;20027;-72
2022/02/21 05:42:19;;;;;;;62.17;42.05;;;103.00;1868.80;;;;;;5072761;28;20036;-72
2022/02/21 05:44:45;;;;;;;65.85;43.50;;;103.00;1868.80;;;;;;5061005;28;20028;-72
2022/02/21 05:47:10;;;;;;;63.97;44.20;;;103.00;1894.40;;;;;;5073163;28;20024;-72
2022/02/21 05:49:36;;;;;;;65.32;43.90;;;103.00;2227.20;;;;;;5062349;28;20044;-71
2022/02/21 05:52:03;;;;;;;72.20;45.85;;;103.00;1843.20;;;;;;5072648;28;20043;-72
2022/02/21 05:54:29;;;;;;;69.00;44.72;;;102.90;1920.00;;;;;;5074466;28;20031;-71
2022/02/21 05:56:55;;;;;;;70.63;44.08;;;103.00;1920.00;;;;;;5074315;28;20107;-71
2022/02/21 05:59:21;;;;;;;66.78;47.58;;;103.20;1920.00;;;;;;5064706;28;20104;-71
2022/02/21 06:01:47;;;;;;;74.07;45.80;;;103.00;1945.60;;;;;;5069208;28;20102;-73
2022/02/21 06:04:13;;;;;;;69.57;43.67;;;103.00;1868.80;;;;;;5067427;28;20032;-73
2022/02/21 06:06:48;;;;;;;66.85;47.60;;;103.00;1920.00;;;;;;5085947;28;20077;-73
2022/02/21 06:09:13;;;;;;;71.15;45.10;;;103.00;1945.60;;;;;;5085188;28;20951;-72
2022/02/21 06:11:39;;;;;;;67.47;44.97;;;103.00;1945.60;;;;;;5066189;28;20039;-73
2022/02/21 06:14:05;;;;;;;69.38;43.88;;;103.00;1945.60;;;;;;5071381;28;20068;-73
2022/02/21 06:16:31;;;;;;;73.97;47.13;;;103.10;1971.20;;;;;;5062182;28;20066;-73
2022/02/21 06:18:57;;;;;;;70.57;47.40;;;103.10;2048.00;;;;;;5070141;28;20029;-72
2022/02/21 06:21:22;;;;;;;65.40;43.05;;;103.10;2022.40;;;;;;5055685;28;20087;-73
2022/02/21 06:23:48;;;;;;;73.72;45.42;;;103.20;2022.40;;;;;;5072081;28;20022;-72
2022/02/21 06:26:14;;;;;;;73.25;44.90;;;103.30;2022.40;;;;;;5071482;28;20123;-72
2022/02/21 06:28:40;;;;;;;67.72;42.72;;;103.30;1971.20;;;;;;5062863;28;20085;-72
2022/02/21 06:31:09;;;;;;;64.20;42.78;;;128.00;1945.60;;;;;;5067430;28;20105;-72
2022/02/21 06:33:36;;;;;;;66.45;43.05;;;128.00;1920.00;;;;;;5060260;28;20025;-72
2022/02/21 06:36:02;;;;;;;60.45;38.90;;;128.10;1894.40;;;;;;5060757;28;20048;-75
2022/02/21 06:38:28;;;;;;;59.08;40.58;;;128.20;2252.80;;;;;;5064168;28;20429;-73
2022/02/21 06:40:54;;;;;;;65.90;42.35;;;128.20;2252.80;;;;;;5073559;28;20103;-72
2022/02/21 06:43:19;;;;;;;60.97;39.40;;;128.20;2252.80;;;;;;5073423;28;20028;-72
2022/02/21 06:45:45;;;;;;;59.08;38.72;;;128.30;2252.80;;;;;;5073774;28;20049;-72
2022/02/21 06:48:11;;;;;;;61.35;40.10;;;128.40;2252.80;;;;;;5072068;28;20119;-72
2022/02/21 06:50:37;;;;;;;52.25;35.80;;;128.40;2252.80;;;;;;5055412;28;20494;-73
2022/02/21 06:53:03;;;;;;;53.58;35.20;;;128.50;2252.80;;;;;;5062381;28;20033;-73
2022/02/21 06:55:29;;;;;;;53.97;33.80;;;128.50;2252.80;;;;;;5072382;28;20028;-73
2022/02/21 06:57:55;;;;;;;55.17;31.80;;;128.50;2252.80;;;;;;5073022;28;20031;-73
2022/02/21 07:00:21;;;;;;;47.88;34.80;;;128.60;2252.80;;;;;;5069459;28;20078;-73
2022/02/21 07:02:47;;;;;;;48.15;34.05;;;128.80;2252.80;;;;;;5069033;28;20035;-74
2022/02/21 07:05:13;;;;;;;48.25;31.77;;;128.90;2252.80;;;;;;5064695;28;20032;-72
2022/02/21 07:07:39;;;;;;;45.60;32.17;;;153.60;2252.80;;;;;;5064800;28;20033;-73
2022/02/21 07:10:07;;;;;;;50.33;33.15;;;153.60;2252.80;;;;;;5064216;28;20077;-72
2022/02/21 07:12:33;;;;;;;46.90;32.25;;;153.80;2252.80;;;;;;5064405;28;20016;-73
2022/02/21 07:14:58;;;;;;;46.45;33.00;;;153.80;2252.80;;;;;;5065540;28;20028;-73
2022/02/21 07:17:25;;;;;;;45.13;29.75;;;153.90;2252.80;;;;;;5067343;28;20070;-73
2022/02/21 07:19:51;;;;;;;44.95;29.83;;;154.00;2252.80;;;;;;5063590;28;20025;-73
2022/02/21 07:22:17;;;;;;;42.92;30.95;;;154.10;2252.80;;;;;;5065925;28;20040;-72
2022/02/21 07:24:43;;;;;;;42.70;29.33;;;154.20;2252.80;;;;;;5065105;28;20032;-72
2022/02/21 07:27:09;;;;;;;48.17;30.70;;;154.30;2252.80;;;;;;5064528;28;20024;-72
2022/02/21 07:29:36;;;;;;;44.67;29.80;;;154.40;2252.80;;;;;;5069786;28;20099;-72
2022/02/21 07:32:06;;;;;;;43.22;28.75;;;154.50;2252.80;;;;;;5065578;28;20024;-72
2022/02/21 07:34:33;;;;;;;43.50;28.95;;;179.20;2252.80;;;;;;5058598;28;20044;-72
2022/02/21 07:36:58;;;;;;;41.50;29.10;;;179.30;2252.80;;;;;;5064504;28;20025;-72
2022/02/21 07:39:24;;;;;;;36.28;27.90;;;179.40;2252.80;;;;;;5061443;28;20037;-72
2022/02/21 07:41:50;;;;;;;41.33;28.48;;;179.60;2252.80;;;;;;5055281;28;20021;-72
2022/02/21 07:44:16;;;;;;;44.28;28.13;;;179.70;2252.80;;;;;;5060746;28;20025;-73
2022/02/21 07:46:42;;;;;;;40.50;27.08;;;179.90;2252.80;;;;;;5068090;28;20108;-72
2022/02/21 07:49:08;;;;;;;38.75;25.88;;;180.00;2252.80;;;;;;5060401;28;20112;-73
2022/02/21 07:51:34;;;;;;;35.28;25.95;;;204.80;2252.80;;;;;;5052428;28;20091;-72
2022/02/21 07:54:00;;;;;;;38.75;24.73;;;204.90;2252.80;;;;;;5071043;28;20506;-73
2022/02/21 07:56:26;;;;;;;35.05;23.73;;;205.10;2252.80;;;;;;5072120;28;20353;-73
2022/02/21 07:58:52;;;;;;;38.05;25.60;;;205.30;2252.80;;;;;;5072270;28;20020;-73
2022/02/21 08:01:18;;;;;;;35.55;21.85;;;205.50;2252.80;;;;;;5070957;28;20066;-73
2022/02/21 08:03:43;;;;;;;32.03;23.55;;;230.40;2252.80;;;;;;5068569;28;20085;-74
2022/02/21 08:06:10;;;;;;;34.63;23.23;;;230.60;2252.80;;;;;;5065492;28;20060;-72
2022/02/21 08:08:38;;;;;;;29.08;22.23;;;230.90;2252.80;;;;;;5054590;28;20032;-72
2022/02/21 08:11:04;;;;;;;29.30;21.90;;;231.10;2252.80;;;;;;5069409;28;20035;-72
2022/02/21 08:13:30;;;;;;;33.00;21.85;;;231.20;2252.80;;;;;;5063203;28;20024;-73
2022/02/21 08:15:55;;;;;;;28.92;21.55;;;231.30;2252.80;;;;;;5069707;28;20027;-73
2022/02/21 08:18:21;;;;;;;26.25;20.73;;;256.10;2252.80;;;;;;5078574;28;20048;-73
2022/02/21 08:20:47;;;;;;;29.00;19.58;;;256.20;2252.80;;;;;;5061066;28;20796;-73
2022/02/21 08:23:13;;;;;;;26.92;19.52;;;256.50;2252.80;;;;;;5060882;28;20021;-74
2022/02/21 08:25:38;;;;;;;31.05;19.17;;;256.80;2252.80;;;;;;5069541;28;20020;-74
2022/02/21 08:28:14;;;;;;;23.65;17.70;;;281.90;2278.40;;;;;;5067567;28;20476;-74
2022/02/21 08:30:39;;;;;;;29.35;20.70;;;282.40;2278.40;;;;;;5051748;28;20073;-74
2022/02/21 08:33:05;;;;;;;24.90;19.27;;;307.30;2304.00;;;;;;5052049;28;20052;-74
2022/02/21 08:35:31;;;;;;;27.13;17.75;;;282.40;2278.40;;;;;;5052705;28;20559;-74
2022/02/21 08:37:58;;;;;;;27.95;17.15;;;282.40;2278.40;;;;;;5064645;28;20112;-74
2022/02/21 08:40:24;;;;;;;23.70;16.08;;;307.20;2304.00;;;;;;5059706;28;20073;-75
2022/02/21 08:42:50;;;;;;;23.20;17.05;;;307.30;2304.00;;;;;;5067986;28;20009;-76
2022/02/21 08:45:16;;;;;;;23.23;17.50;;;307.40;2304.00;;;;;;5064184;28;20043;-75
2022/02/21 08:47:42;;;;;;;29.55;18.08;;;307.50;2304.00;;;;;;5062322;28;20025;-75
2022/02/21 08:50:12;;;;;;;25.60;17.10;;;307.60;2304.00;;;;;;5055292;28;20029;-75
2022/02/21 08:52:40;;;;;;;24.42;17.02;;;307.70;2304.00;;;;;;5061098;28;20028;-75
2022/02/21 08:55:12;;;;;;;23.50;17.40;;;307.80;2304.00;;;;;;5061430;28;20083;-76
2022/02/21 08:57:41;;;;;;;21.27;15.85;;;308.10;2304.00;;;;;;5069916;28;20036;-75
2022/02/21 09:00:15;;;;;;;25.08;17.90;;;332.80;2329.60;;;;;;5065789;28;20079;-75
2022/02/21 09:02:43;;;;;;;23.65;17.33;;;332.80;2329.60;;;;;;5060856;28;20021;-74
2022/02/21 09:05:14;;;;;;;26.67;19.98;;;332.90;2329.60;;;;;;5062750;28;20058;-75
2022/02/21 09:07:40;;;;;;;27.98;18.85;;;332.80;2329.60;;;;;;5061985;28;20091;-74
2022/02/21 09:10:06;;;;;;;27.40;19.38;;;333.00;2329.60;;;;;;5059500;28;20024;-74
2022/02/21 09:12:32;;;;;;;22.63;16.75;;;333.20;2329.60;;;;;;5069336;28;20025;-75
2022/02/21 09:15:01;;;;;;;26.77;16.92;;;333.00;2329.60;;;;;;5068360;28;20029;-74
2022/02/21 09:17:29;;;;;;;24.92;17.63;;;333.50;2329.60;;;;;;5060438;28;20112;-74
2022/02/21 09:19:55;;;;;;;28.08;16.00;;;333.50;2329.60;;;;;;5062985;28;20039;-74
2022/02/21 09:22:24;;;;;;;22.80;16.60;;;333.70;2329.60;;;;;;5067461;28;20024;-74
2022/02/21 09:24:52;;;;;;;21.50;14.98;;;358.50;2329.60;;;;;;5059686;28;20071;-75
2022/02/21 09:27:18;;;;;;;21.92;14.68;;;358.80;2329.60;;;;;;5060552;28;20500;-74
2022/02/21 09:29:45;;;;;;;23.60;16.27;;;359.10;2329.60;;;;;;5065816;28;20036;-74
2022/02/21 09:32:14;;;;;;;23.27;15.65;;;359.10;2329.60;;;;;;5060802;28;20033;-74
2022/02/21 09:34:42;;;;;;;16.23;12.95;;;384.10;2329.60;;;;;;5059527;28;20049;-75
2022/02/21 09:37:15;;;;;;;17.73;13.38;;;384.10;2329.60;;;;;;5065745;28;20937;-75
2022/02/21 09:39:46;;;;;;;19.45;13.05;;;359.30;2329.60;;;;;;5061466;28;20021;-75
2022/02/21 09:42:12;;;;;;;19.20;14.20;;;384.00;2329.60;;;;;;5064066;28;20028;-75
2022/02/21 09:44:38;;;;;;;23.33;14.70;;;384.00;2329.60;;;;;;5077596;28;20451;-75
2022/02/21 09:47:06;;;;;;;22.35;16.00;;;359.20;2329.60;;;;;;5062027;28;20044;-75
2022/02/21 09:49:32;;;;;;;25.77;17.08;;;359.30;2329.60;;;;;;5061156;28;20083;-74
2022/02/21 09:51:58;;;;;;;18.23;13.10;;;384.20;2329.60;;;;;;5066272;28;20436;-75
2022/02/21 09:54:24;;;;;;;21.50;14.30;;;384.20;2329.60;;;;;;5063637;28;20060;-76
2022/02/21 09:56:51;;;;;;;20.73;14.07;;;384.40;2329.60;;;;;;5059795;28;20111;-75
2022/02/21 09:59:18;;;;;;;17.90;12.50;;;384.50;2329.60;;;;;;5062169;28;20021;-75
2022/02/21 10:01:45;;;;;;;19.88;13.40;;;384.50;2329.60;;;;;;5067016;28;20033;-75
2022/02/21 10:04:12;;;;;;;19.10;13.13;;;384.30;2329.60;;;;;;5067182;28;20063;-76
2022/02/21 10:06:41;;;;;;;15.90;12.13;;;384.50;2329.60;;;;;;5063923;28;20186;-75
2022/02/21 10:09:11;;;;;;;14.05;11.85;;;384.60;2329.60;;;;;;5072309;28;20033;-75
2022/02/21 10:11:43;;;;;;;16.33;12.10;;;384.60;2329.60;;;;;;5078322;28;20057;-75
2022/02/21 10:14:13;;;;;;;15.48;12.13;;;384.40;2329.60;;;;;;5068109;28;20029;-76
2022/02/21 10:16:50;;;;;;;17.33;11.50;;;384.50;2329.60;;;;;;5071669;28;20036;-75
2022/02/21 10:19:25;;;;;;;13.45;10.57;;;384.60;2329.60;;;;;;5063717;28;20028;-75
2022/02/21 10:22:10;;;;;;;15.85;10.45;;;410.00;2355.20;;;;;;5066918;28;20036;-76
2022/02/21 10:24:36;;;;;;;17.73;11.63;;;435.20;2355.20;;;;;;5065505;28;20018;-75
2022/02/21 10:27:20;;;;;;;15.20;9.43;;;460.90;2380.80;;;;;;5065084;28;20035;-76
2022/02/21 10:29:59;;;;;;;13.68;8.90;;;461.70;2380.80;;;;;;5067907;28;20024;-75
2022/02/21 10:32:31;;;;;;;17.33;9.27;;;486.50;2329.60;;;;;;5080469;28;20078;-76
2022/02/21 10:35:22;;;;;;;16.08;8.13;;;487.10;2048.00;;;;;;5062916;28;20484;-75
2022/02/21 10:37:57;;;;;;;11.38;8.63;;;487.20;2022.40;;;;;;5061825;28;20028;-72
2022/02/21 10:40:30;;;;;;;17.33;11.80;;;487.00;2073.60;;;;;;5069677;28;20040;-75
2022/02/21 10:43:05;;;;;;;12.20;8.13;;;487.30;1996.80;;;;;;5070748;28;20051;-78
2022/02/21 10:45:31;;;;;;;9.35;6.03;;;486.90;1971.20;;;;;;5064691;28;20028;-76
2022/02/21 10:47:59;;;;;;;15.13;8.55;;;486.40;1996.80;;;;;;5068629;28;20036;-76
2022/02/21 10:50:24;;;;;;;9.82;8.07;;;461.70;2099.20;;;;;;5070085;28;20040;-76
2022/02/21 10:52:50;;;;;;;18.30;12.00;;;486.60;2073.60;;;;;;5068553;28;20017;-73
2022/02/21 10:55:16;;;;;;;12.07;8.07;;;487.30;1945.60;;;;;;5071005;28;20024;-73
2022/02/21 10:57:47;;;;;;;10.70;7.68;;;487.00;1945.60;;;;;;5070112;28;20070;-73
2022/02/21 11:00:14;;;;;;;13.48;8.18;;;487.10;1920.00;;;;;;5070834;28;20514;-75
2022/02/21 11:02:41;;;;;;;11.43;8.43;;;487.10;1868.80;;;;;;5064766;28;20040;-72
2022/02/21 11:05:18;;;;;;;14.30;8.45;;;487.10;1894.40;;;;;;5062171;28;20025;-76
2022/02/21 11:07:52;;;;;;;14.48;8.30;;;486.70;1996.80;;;;;;5068678;28;20029;-75
2022/02/21 11:10:23;;;;;;;13.63;7.70;;;487.00;1945.60;;;;;;5063744;28;20107;-76
2022/02/21 11:12:51;;;;;;;14.25;8.95;;;512.30;1817.60;;;;;;5068558;28;20491;-76
2022/02/21 11:15:22;;;;;;;16.25;9.45;;;512.10;1817.60;;;;;;5062223;28;20024;-73
2022/02/21 11:17:48;;;;;;;13.88;8.57;;;486.90;1792.00;;;;;;5059151;28;20025;-75
2022/02/21 11:20:20;;;;;;;15.77;8.82;;;512.30;1715.20;;;;;;5067811;28;20033;-75
2022/02/21 11:22:49;;;;;;;16.42;9.52;;;538.10;1587.20;;;;;;5063404;28;20505;-75
2022/02/21 11:25:30;;;;;;;17.60;11.63;;;538.00;1612.80;;;;;;5064097;28;20032;-76
2022/02/21 11:28:28;;;;;;;13.52;9.70;;;563.20;1561.60;;;;;;5068929;28;20107;-76
2022/02/21 11:30:58;;;;;;;12.98;10.85;;;563.80;1536.00;;;;;;4983369;28;20031;-73
2022/02/21 11:33:24;;;;;;;13.77;8.65;;;588.80;1484.80;;;;;;4982223;28;20130;-73
2022/02/21 11:36:13;;;;;;;10.20;7.85;;;589.50;1408.00;;;;;;4977941;28;20079;-72
2022/02/21 11:38:51;;;;;;;11.02;7.25;;;614.70;1331.20;;;;;;4981308;28;20039;-76
2022/02/21 11:41:34;;;;;;;10.52;7.40;;;615.10;1305.60;;;;;;4981304;28;20034;-73
2022/02/21 11:44:21;;;;;;;9.48;6.88;;;615.20;1280.00;;;;;;4980218;28;20046;-74
2022/02/21 11:46:50;;;;;;;9.13;6.53;;;614.90;1280.00;;;;;;4969351;28;20101;-74
2022/02/21 11:49:29;;;;;;;9.43;6.13;;;614.80;1280.00;;;;;;4979065;28;20054;-74
2022/02/21 11:51:57;;;;;;;8.85;6.20;;;589.70;1280.00;;;;;;4972819;28;20019;-73
2022/02/21 11:54:22;;;;;;;13.07;8.35;;;589.40;1305.60;;;;;;4969585;28;20027;-74
2022/02/21 11:56:48;;;;;;;9.30;6.95;;;589.20;1331.20;;;;;;4981350;28;20374;-72
2022/02/21 11:59:23;;;;;;;15.02;8.05;;;589.20;1305.60;;;;;;4975122;28;20050;-73